Kocelovice, Czech Republic
Current Conditions -  °F | °C
As of 11:00 AM on Wednesday 22 Oct 2014 (Local Time) from LKLN Reporting Station
Overcast Overcast  
Wind Chill: 38°   Ceiling: 1800
Heat Index: 41°   Visibility: NA
Dew Point: 39°   Wind: 5mph
Humidity: 93%   Direction: 280°W
Pressure: 29.8"   Gusts: NA
Location:  49.47°N, 13.83°E
Report Text: LKLN 220900Z AUTO 28004KT 230V310 //// OVC018 05/04 Q1009
Loading
Personal Weather Stations






























Interactive Weather Map
Tropical Storm Tracking
New forecast layout! Learn more

10-Day Weather Forecast

Advertisements
Track Severe Weather on mobile